Flight Track Log - Related Links

Times and Time Zones

All times are in EDT time to prevent confusion due to time zone crossing. See the CTL309 flight status page for this flight to view local times or setup timezone preferences in your user account.

Time Position Orientation Groundspeed Altitude Reporting Facility
EDT Latitude Longitude Course Direction KTS MPH feet Rate Location/Type
Mon 09:56:29 PM 41.5336 -81.6761 351° North 132 152 1,200  Level Cleveland Center
Mon 09:57:12 PM 41.5628 -81.6819 351° North 149 171 2,000 1,049 Climbing Cleveland Center
Mon 09:58:12 PM 41.6022 -81.6939 347° North 158 182 3,000 1,091 Climbing Cleveland Center
Mon 09:59:13 PM 41.6186 -81.7275 303° West 137 158 4,200 1,033 Climbing Cleveland Center
Mon 10:00:14 PM 41.5872 -81.7547 213° Southwest 125 144 5,100 744 Climbing Cleveland Center
Mon 10:01:14 PM 41.5556 -81.7819 213° Southwest 146 168 5,700 545 Climbing Cleveland Center
Mon 10:02:15 PM 41.5197 -81.8200 218° Southwest 159 183 6,200 248 Climbing Cleveland Center
Mon 10:03:15 PM 41.4797 -81.8581 215° Southwest 176 203 6,200  Level Cleveland Center
Mon 10:04:16 PM 41.4397 -81.8933 213° Southwest 175 201 6,200 -49 Level Cleveland Center
Mon 10:05:17 PM 41.3997 -81.9311 215° Southwest 172 198 6,100  Descending Cleveland Center
Mon 10:06:17 PM 41.3597 -81.9636 211° Southwest 173 199 6,200 32 Climbing Cleveland Center
Mon 10:08:24 PM 41.2733 -82.0364 212° Southwest 169 194 6,200 -32 Level Cleveland Center
Mon 10:09:25 PM 41.2331 -82.0742 215° Southwest 173 199 6,100 -49 Descending Cleveland Center
Mon 10:10:26 PM 41.1931 -82.1092 213° Southwest 172 198 6,100 30 Level Cleveland Center
Mon 10:12:46 PM 41.1022 -82.1847 212° Southwest 174 200 6,200 30 Climbing Indianapolis Center
Mon 10:13:47 PM 41.0611 -82.2181 211° Southwest 173 199 6,200  Level Indianapolis Center
Mon 10:14:48 PM 41.0203 -82.2528 213° Southwest 173 199 6,200 -49 Level Indianapolis Center
Mon 10:15:50 PM 40.9789 -82.2856 211° Southwest 173 199 6,100 -65 Descending Indianapolis Center
Mon 10:17:00 PM 40.9333 -82.3212 211° Southwest  Level FlightAware Approximate
Mon 10:17:52 PM 40.8961 -82.3514 211° Southwest 172 198 6,000  Level Indianapolis Center
Mon 10:18:53 PM 40.8539 -82.3839 210° Southwest 173 199 6,100 98 Climbing Indianapolis Center
Mon 10:19:54 PM 40.8122 -82.4186 212° Southwest 174 200 6,200  Climbing Indianapolis Center
Mon 10:21:00 PM 40.7691 -82.4518 210° Southwest  Level FlightAware Approximate
Mon 10:21:56 PM 40.7294 -82.4922 210° Southwest 177 204 6,100  Level Indianapolis Center
Mon 10:22:57 PM 40.6889 -82.5269 213° Southwest 173 199 6,100  Level Indianapolis Center
Mon 10:24:00 PM 40.6469 -82.5566 208° Southwest  Level FlightAware Approximate
Mon 10:24:59 PM 40.6072 -82.5975 208° Southwest 175 201 6,100  Level Indianapolis Center
Mon 10:26:00 PM 40.5654 -82.6231 205° Southwest  Level FlightAware Approximate
Mon 10:27:01 PM 40.5181 -82.6789 205° Southwest 179 206 6,200  Level Indianapolis Center
Mon 10:28:02 PM 40.4758 -82.7156 213° Southwest 180 207 6,100 -49 Descending Indianapolis Center
Mon 10:29:03 PM 40.4344 -82.7556 216° Southwest 182 209 6,100 -328 Level Indianapolis Center
Mon 10:31:05 PM 40.3442 -82.8325 213° Southwest 195 224 5,100 -689 Descending Indianapolis Center
Mon 10:32:06 PM 40.2972 -82.8756 215° Southwest 201 231 4,000 -1,033 Descending Indianapolis Center
Mon 10:33:07 PM 40.2489 -82.9186 214° Southwest 205 236 3,000 -829 Descending Indianapolis Center
Mon 10:34:09 PM 40.2022 -82.9617 215° Southwest 205 236 2,300 -522 Descending Indianapolis Center
Mon 10:35:25 PM 40.1483 -83.0114 215° Southwest 183 211 1,800 -295 Descending Indianapolis Center
Mon 10:36:11 PM 40.1197 -83.0367 214° Southwest 183 211 1,700 -112 Descending Indianapolis Center
Mon 10:37:12 PM 40.1017 -83.0825 243° Southwest 160 184 1,600 -246 Descending Indianapolis Center
Mon 10:38:13 PM 40.0783 -83.1069 219° Southwest 122 140 1,200 -246 Descending Indianapolis Center
Mon 10:39:14 PM 40.0803 -83.0689 86° East 125 144 1,100 -98 Descending Indianapolis Center

Login

Don't have an account? Register now (free) for customized features, flight alerts, and more!